createdAt,value
2019-01-15T00:00:43.865Z,95725.47
2019-01-15T00:03:13.375Z,95723.29
2019-01-15T00:05:42.782Z,95714.69
2019-01-15T00:08:13.784Z,95724.11
2019-01-15T00:10:43.327Z,95713.37
2019-01-15T00:13:12.749Z,95728.88
2019-01-15T00:15:42.181Z,95723.73
2019-01-15T00:18:11.608Z,95731.49
2019-01-15T00:20:41.028Z,95743.52
2019-01-15T00:23:10.590Z,95747.84
2019-01-15T00:25:39.979Z,95750.81
2019-01-15T00:28:09.396Z,95749.75
2019-01-15T00:30:38.878Z,95758.35
2019-01-15T00:33:08.280Z,95759.88
2019-01-15T00:35:37.695Z,95757.86
2019-01-15T00:38:07.197Z,95759.79
2019-01-15T00:40:36.622Z,95763.74
2019-01-15T00:43:06.053Z,95761.89
2019-01-15T00:45:35.523Z,95772.22
2019-01-15T00:48:05.087Z,95783.57
2019-01-15T00:50:34.530Z,95775.47
2019-01-15T00:53:04.039Z,95771.64
2019-01-15T00:55:33.466Z,95768.23
2019-01-15T00:58:02.906Z,95776.94
2019-01-15T01:00:32.406Z,95781.41
2019-01-15T01:03:02.205Z,95780.30
2019-01-15T01:05:31.666Z,95781.98
2019-01-15T01:08:01.235Z,95788.34
2019-01-15T01:10:30.652Z,95789.04
2019-01-15T01:13:00.082Z,95782.02
2019-01-15T01:15:29.579Z,95790.19
2019-01-15T01:17:59.083Z,95798.77
2019-01-15T01:20:28.467Z,95789.92
2019-01-15T01:22:57.895Z,95796.89
2019-01-15T01:25:27.317Z,95799.06
2019-01-15T01:27:56.752Z,95801.32
2019-01-15T01:30:26.181Z,95798.44
2019-01-15T01:32:55.620Z,95801.56
2019-01-15T01:35:25.039Z,95803.47
2019-01-15T01:37:54.458Z,95802.84
2019-01-15T01:40:23.890Z,95812.42
2019-01-15T01:42:53.346Z,95805.78
2019-01-15T01:45:22.787Z,95816.63
2019-01-15T01:47:52.217Z,95811.60
2019-01-15T01:50:21.639Z,95811.98
2019-01-15T01:52:51.081Z,95815.81
2019-01-15T01:55:20.514Z,95814.78
2019-01-15T01:57:49.926Z,95817.55
2019-01-15T02:00:20.509Z,95812.74
2019-01-15T02:02:50.074Z,95810.61
2019-01-15T02:05:19.756Z,95810.28
2019-01-15T02:07:49.345Z,95818.56
2019-01-15T02:10:19.248Z,95810.46
2019-01-15T02:12:48.735Z,95813.59
2019-01-15T02:15:21.178Z,95827.14
2019-01-15T02:17:50.604Z,95826.14
2019-01-15T02:20:20.886Z,95828.77
2019-01-15T02:22:50.443Z,95828.69
2019-01-15T02:25:19.866Z,95816.61
2019-01-15T02:27:50.369Z,95822.29
2019-01-15T02:30:24.991Z,95825.92
2019-01-15T02:32:54.596Z,95824.73
2019-01-15T02:35:24.039Z,95826.55
2019-01-15T02:37:53.450Z,95835.61
2019-01-15T02:40:22.878Z,95829.05
2019-01-15T02:42:52.636Z,95831.08
2019-01-15T02:45:22.125Z,95838.63
2019-01-15T02:47:51.614Z,95842.34
2019-01-15T02:50:21.875Z,95846.46
2019-01-15T02:52:51.383Z,95846.98
2019-01-15T02:55:20.799Z,95855.58
2019-01-15T02:57:50.292Z,95855.41
2019-01-15T03:00:23.274Z,95867.94
2019-01-15T03:02:52.844Z,95870.07
2019-01-15T03:05:22.439Z,95865.53
2019-01-15T03:07:51.932Z,95859.29
2019-01-15T03:10:22.498Z,95862.91
2019-01-15T03:12:56.709Z,95870.30
2019-01-15T03:15:24.188Z,95866.23
2019-01-15T03:17:53.692Z,95862.11
2019-01-15T03:20:23.269Z,95870.98
2019-01-15T03:22:52.699Z,95869.31
2019-01-15T03:25:22.302Z,95875.27
2019-01-15T03:27:51.730Z,95875.30
2019-01-15T03:30:23.282Z,95873.48
2019-01-15T03:32:53.116Z,95877.22
2019-01-15T03:35:22.537Z,95881.86
2019-01-15T03:37:52.036Z,95870.18
2019-01-15T03:40:24.163Z,95878.27
2019-01-15T03:42:53.746Z,95877.91
2019-01-15T03:45:23.179Z,95880.70
2019-01-15T03:47:52.611Z,95878.53
2019-01-15T03:50:22.293Z,95879.28
2019-01-15T03:52:51.728Z,95877.14
2019-01-15T03:55:21.454Z,95887.41
2019-01-15T03:57:50.860Z,95879.88
2019-01-15T04:00:22.692Z,95880.57
2019-01-15T04:02:52.110Z,95886.85
2019-01-15T04:05:21.572Z,95883.66
2019-01-15T04:07:52.641Z,95901.95
2019-01-15T04:10:22.222Z,95891.42
2019-01-15T04:12:51.682Z,95899.39
2019-01-15T04:15:21.096Z,95908.66
2019-01-15T04:17:50.520Z,95902.84
2019-01-15T04:20:19.990Z,95912.83
2019-01-15T04:22:49.421Z,95921.95
2019-01-15T04:25:18.866Z,95927.84
2019-01-15T04:27:48.294Z,95931.08
2019-01-15T04:30:20.674Z,95939.39
2019-01-15T04:32:50.137Z,95930.75
2019-01-15T04:35:19.554Z,95939.84
2019-01-15T04:37:49.010Z,95942.60
2019-01-15T04:40:20.369Z,95946.92
2019-01-15T04:42:49.787Z,95948.28
2019-01-15T04:45:21.141Z,95937.80
2019-01-15T04:47:50.703Z,95938.27
2019-01-15T04:50:20.203Z,95943.35
2019-01-15T04:52:51.343Z,95942.81
2019-01-15T04:55:20.839Z,95944.55
2019-01-15T04:57:50.238Z,95939.06
2019-01-15T05:00:22.178Z,95944.94
2019-01-15T05:02:52.036Z,95943.30
2019-01-15T05:05:21.511Z,95951.60
2019-01-15T05:07:50.925Z,95950.14
2019-01-15T05:10:20.454Z,95951.06
2019-01-15T05:12:49.917Z,95950.08
2019-01-15T05:15:19.328Z,95957.23
2019-01-15T05:17:48.746Z,95954.93
2019-01-15T05:20:20.025Z,95959.73
2019-01-15T05:22:49.534Z,95955.62
2019-01-15T05:25:22.649Z,95960.19
2019-01-15T05:27:52.206Z,95963.55
2019-01-15T05:30:27.181Z,95972.08
2019-01-15T05:32:56.768Z,95968.58
2019-01-15T05:35:26.958Z,95972.73
2019-01-15T05:37:56.365Z,95974.35
2019-01-15T05:40:25.801Z,95970.34
2019-01-15T05:42:55.292Z,95973.03
2019-01-15T05:45:26.486Z,95966.72
2019-01-15T05:47:57.545Z,95976.29
2019-01-15T05:50:37.075Z,95976.34
2019-01-15T05:53:06.484Z,95981.69
2019-01-15T05:55:35.919Z,95988.95
2019-01-15T05:58:05.467Z,95984.75
2019-01-15T06:00:34.975Z,95989.59
2019-01-15T06:03:04.880Z,95995.68
2019-01-15T06:05:34.311Z,95982.19
2019-01-15T06:08:03.732Z,95987.58
2019-01-15T06:10:33.161Z,95982.38
2019-01-15T06:13:02.594Z,95983.63
2019-01-15T06:15:32.023Z,95984.13
2019-01-15T06:18:01.488Z,95987.65
2019-01-15T06:20:30.916Z,96000.13
2019-01-15T06:23:00.336Z,95999.77
2019-01-15T06:25:29.788Z,95998.18
2019-01-15T06:27:59.194Z,95999.17
2019-01-15T06:30:28.627Z,95996.54
2019-01-15T06:32:58.049Z,95995.55
2019-01-15T06:35:27.521Z,96002.14
2019-01-15T06:37:56.923Z,96001.52
2019-01-15T06:40:26.364Z,96004.45
2019-01-15T06:42:55.779Z,96014.55
2019-01-15T06:45:31.186Z,96001.78
2019-01-15T06:48:00.882Z,96006.09
2019-01-15T06:50:30.321Z,96002.63
2019-01-15T06:52:59.748Z,95997.17
2019-01-15T06:55:29.192Z,96005.13
2019-01-15T06:57:58.608Z,95990.16
2019-01-15T07:00:30.818Z,95994.86
2019-01-15T07:03:00.504Z,96002.89
2019-01-15T07:05:29.955Z,96006.35
2019-01-15T07:07:59.381Z,96005.39
2019-01-15T07:10:39.491Z,96014.97
2019-01-15T07:13:08.996Z,96010.46
2019-01-15T07:15:38.453Z,96019.44
2019-01-15T07:18:07.948Z,96024.55
2019-01-15T07:20:37.393Z,96034.12
2019-01-15T07:23:06.825Z,96037.23
2019-01-15T07:25:36.321Z,96048.05
2019-01-15T07:28:05.944Z,96043.49
2019-01-15T07:30:40.030Z,96039.86
2019-01-15T07:33:09.618Z,96043.69
2019-01-15T07:35:39.056Z,96043.05
2019-01-15T07:38:08.559Z,96053.51
2019-01-15T07:40:38.059Z,96047.53
2019-01-15T07:43:07.481Z,96042.02
2019-01-15T07:45:36.918Z,96045.53
2019-01-15T07:48:06.595Z,96042.22
2019-01-15T07:50:36.014Z,96038.81
2019-01-15T07:53:06.179Z,96052.82
2019-01-15T07:55:35.620Z,96047.78
2019-01-15T07:58:05.348Z,96057.41
2019-01-15T08:00:34.845Z,96060.25
2019-01-15T08:03:04.444Z,96070.92
2019-01-15T08:05:33.945Z,96052.91
2019-01-15T08:08:03.364Z,96054.63
2019-01-15T08:10:32.861Z,96065.81
2019-01-15T08:13:02.287Z,96063.73
2019-01-15T08:15:31.755Z,96059.07
2019-01-15T08:18:01.190Z,96061.65
2019-01-15T08:20:30.689Z,96068.72
2019-01-15T08:23:00.135Z,96073.72
2019-01-15T08:25:29.559Z,96063.67
2019-01-15T08:27:58.986Z,96071.41
2019-01-15T08:30:32.394Z,96069.23
2019-01-15T08:33:01.800Z,96073.31
2019-01-15T08:35:31.362Z,96070.80
2019-01-15T08:38:00.795Z,96071.65
2019-01-15T08:40:30.250Z,96071.56
2019-01-15T08:42:59.660Z,96067.97
2019-01-15T08:45:29.077Z,96069.59
2019-01-15T08:48:02.947Z,96070.42
2019-01-15T08:50:33.581Z,96066.67
2019-01-15T08:53:03.092Z,96071.31
2019-01-15T08:55:32.865Z,96072.30
2019-01-15T08:58:02.270Z,96070.75
2019-01-15T09:00:31.746Z,96071.05
2019-01-15T09:03:01.159Z,96071.68
2019-01-15T09:05:30.663Z,96073.61
2019-01-15T09:08:00.081Z,96072.30
2019-01-15T09:10:29.527Z,96072.49
2019-01-15T09:12:58.955Z,96067.36
2019-01-15T09:15:28.396Z,96074.22
2019-01-15T09:17:57.868Z,96067.44
2019-01-15T09:20:27.302Z,96073.45
2019-01-15T09:22:56.798Z,96068.73
2019-01-15T09:25:26.245Z,96075.20
2019-01-15T09:27:55.679Z,96073.06
2019-01-15T09:30:25.189Z,96064.11
2019-01-15T09:32:54.644Z,96068.69
2019-01-15T09:35:24.106Z,96068.61
2019-01-15T09:37:53.688Z,96059.20
2019-01-15T09:40:24.459Z,96070.34
2019-01-15T09:42:53.946Z,96069.81
2019-01-15T09:45:24.306Z,96067.94
2019-01-15T09:47:58.101Z,96064.31
2019-01-15T09:50:27.540Z,96065.10
2019-01-15T09:52:57.203Z,96055.88
2019-01-15T09:55:26.632Z,96052.95
2019-01-15T09:57:56.065Z,96046.56
2019-01-15T10:00:25.560Z,96045.24
2019-01-15T10:02:55.124Z,96040.83
2019-01-15T10:05:24.582Z,96041.52
2019-01-15T10:07:54.012Z,96044.84
2019-01-15T10:10:23.479Z,96049.06
2019-01-15T10:12:52.897Z,96030.42
2019-01-15T10:15:22.697Z,96023.97
2019-01-15T10:17:52.169Z,96024.27
2019-01-15T10:20:21.596Z,96026.17
2019-01-15T10:22:51.018Z,96026.52
2019-01-15T10:25:27.194Z,96034.91
2019-01-15T10:27:57.726Z,96020.17
2019-01-15T10:30:41.892Z,96025.17
2019-01-15T10:33:27.855Z,96023.03
2019-01-15T10:35:57.430Z,96021.77
2019-01-15T10:38:29.759Z,96015.58
2019-01-15T10:40:59.263Z,96018.38
2019-01-15T10:43:29.095Z,96016.42
2019-01-15T10:45:58.590Z,96021.84
2019-01-15T10:48:28.298Z,96019.66
2019-01-15T10:50:57.720Z,96010.70
2019-01-15T10:53:27.586Z,95999.73
2019-01-15T10:55:57.094Z,95999.08
2019-01-15T10:58:26.616Z,95994.67
2019-01-15T11:00:56.033Z,95990.67
2019-01-15T11:03:25.472Z,95999.08
2019-01-15T11:05:54.902Z,95997.22
2019-01-15T11:08:24.391Z,95996.00
2019-01-15T11:10:53.852Z,96001.52
2019-01-15T11:13:23.311Z,95999.63
2019-01-15T11:15:52.730Z,95991.46
2019-01-15T11:18:22.168Z,95982.34
2019-01-15T11:20:51.592Z,95982.71
2019-01-15T11:23:21.120Z,95977.88
2019-01-15T11:25:50.538Z,95983.19
2019-01-15T11:28:19.979Z,95969.05
2019-01-15T11:30:49.429Z,95972.69
2019-01-15T11:33:18.860Z,95973.55
2019-01-15T11:35:48.287Z,95971.55
2019-01-15T11:38:17.729Z,95971.90
2019-01-15T11:40:47.153Z,95966.09
2019-01-15T11:43:16.657Z,95960.52
2019-01-15T11:45:46.080Z,95958.78
2019-01-15T11:48:15.586Z,95948.73
2019-01-15T11:50:45.011Z,95945.85
2019-01-15T11:53:14.438Z,95941.30
2019-01-15T11:55:43.865Z,95944.47
2019-01-15T11:58:13.316Z,95940.31
2019-01-15T12:00:44.408Z,95931.36
2019-01-15T12:03:15.657Z,95943.56
2019-01-15T12:05:49.102Z,95925.38
2019-01-15T12:08:20.748Z,95917.26
2019-01-15T12:11:07.968Z,95917.98
2019-01-15T12:13:44.835Z,95918.72
2019-01-15T12:16:20.135Z,95913.87
2019-01-15T12:18:56.681Z,95918.84
2019-01-15T12:21:33.314Z,95917.22
2019-01-15T12:24:07.449Z,95907.47
2019-01-15T12:26:38.531Z,95905.92
2019-01-15T12:29:21.121Z,95905.94
2019-01-15T12:32:04.004Z,95902.91
2019-01-15T12:34:37.523Z,95898.53
2019-01-15T12:37:11.023Z,95900.77
2019-01-15T12:39:57.686Z,95890.30
2019-01-15T12:42:46.699Z,95895.80
2019-01-15T12:45:33.210Z,95893.53
2019-01-15T12:48:10.004Z,95886.35
2019-01-15T12:50:41.927Z,95888.90
2019-01-15T12:53:27.575Z,95877.01
2019-01-15T12:55:56.769Z,95875.47
2019-01-15T12:58:42.682Z,95890.11
2019-01-15T13:01:19.308Z,95884.33
2019-01-15T13:03:59.136Z,95879.93
2019-01-15T13:06:48.315Z,95885.65
2019-01-15T13:09:35.099Z,95873.65
2019-01-15T13:12:22.105Z,95877.19
2019-01-15T13:15:09.317Z,95865.81
2019-01-15T13:17:43.319Z,95887.36
2019-01-15T13:20:19.946Z,95886.04
2019-01-15T13:23:00.114Z,95887.63
2019-01-15T13:25:31.211Z,95891.22
2019-01-15T13:28:03.149Z,95884.22
2019-01-15T13:30:40.157Z,95887.97
2019-01-15T13:33:12.899Z,95902.11
2019-01-15T13:35:44.101Z,95876.90
2019-01-15T13:38:28.175Z,95881.68
2019-01-15T13:40:59.339Z,95888.58
2019-01-15T13:43:39.280Z,95887.97
2019-01-15T13:46:10.316Z,95882.40
2019-01-15T13:48:50.183Z,95890.41
2019-01-15T13:51:39.140Z,95897.01
2019-01-15T13:54:21.838Z,95886.64
2019-01-15T13:56:52.888Z,95882.19
2019-01-15T13:59:38.850Z,95878.94
2019-01-15T14:02:16.848Z,95888.79
2019-01-15T14:04:50.592Z,95876.40
2019-01-15T14:07:21.650Z,95888.80
2019-01-15T14:10:08.288Z,95873.94
2019-01-15T14:12:54.132Z,95871.00
2019-01-15T14:15:40.323Z,95868.25
2019-01-15T14:18:14.135Z,95871.40
2019-01-15T14:20:45.219Z,95868.05
2019-01-15T14:23:42.855Z,95883.82
2019-01-15T14:26:13.919Z,95874.97
2019-01-15T14:28:47.913Z,95882.69
2019-01-15T14:31:21.625Z,95875.08
2019-01-15T14:33:50.889Z,95871.11
2019-01-15T14:36:22.813Z,95875.16
2019-01-15T14:38:53.977Z,95877.49
2019-01-15T14:41:40.691Z,95875.88
2019-01-15T14:44:15.703Z,95875.17
2019-01-15T14:46:49.628Z,95878.63
2019-01-15T14:49:23.678Z,95873.95
2019-01-15T14:51:54.766Z,95882.06
2019-01-15T14:54:40.710Z,95874.42
2019-01-15T14:57:20.678Z,95870.54
2019-01-15T15:00:00.203Z,95891.55
2019-01-15T15:02:41.412Z,95881.25
2019-01-15T15:05:14.961Z,95889.89
2019-01-15T15:07:54.750Z,95882.86
2019-01-15T15:10:28.277Z,95896.06
2019-01-15T15:13:00.248Z,95887.94
2019-01-15T15:15:34.004Z,95896.55
2019-01-15T15:18:05.062Z,95893.41
2019-01-15T15:20:51.099Z,95893.21
2019-01-15T15:23:26.182Z,95885.41
2019-01-15T15:25:59.954Z,95884.48
2019-01-15T15:28:33.702Z,95875.02
2019-01-15T15:31:07.792Z,95879.51
2019-01-15T15:33:39.792Z,95870.98
2019-01-15T15:36:26.659Z,95881.23
2019-01-15T15:39:10.623Z,95882.03
2019-01-15T15:41:57.736Z,95885.79
2019-01-15T15:44:28.796Z,95889.53
2019-01-15T15:46:59.895Z,95902.13
2019-01-15T15:49:47.387Z,95881.80
2019-01-15T15:52:18.491Z,95881.11
2019-01-15T15:54:58.257Z,95889.54
2019-01-15T15:57:27.443Z,95892.98
2019-01-15T15:59:56.650Z,95890.74
2019-01-15T16:02:27.789Z,95882.94
2019-01-15T16:05:04.554Z,95893.41
2019-01-15T16:07:47.613Z,95892.98
2019-01-15T16:10:34.577Z,95888.52
2019-01-15T16:13:05.729Z,95879.16
2019-01-15T16:15:39.339Z,95882.13
2019-01-15T16:18:14.300Z,95890.74
2019-01-15T16:20:45.455Z,95889.94
2019-01-15T16:23:19.136Z,95891.55
2019-01-15T16:25:50.267Z,95895.09
2019-01-15T16:28:24.332Z,95886.19
2019-01-15T16:30:55.426Z,95888.83
2019-01-15T16:33:26.499Z,95896.11
2019-01-15T16:36:00.041Z,95897.44
2019-01-15T16:38:31.291Z,95882.52
2019-01-15T16:41:02.382Z,95891.78
2019-01-15T16:43:49.069Z,95896.95
2019-01-15T16:46:26.440Z,95889.12
2019-01-15T16:48:55.902Z,95892.87
2019-01-15T16:51:27.013Z,95884.55
2019-01-15T16:53:56.283Z,95899.48
2019-01-15T16:56:27.414Z,95895.23
2019-01-15T16:59:04.119Z,95897.27
2019-01-15T17:01:41.051Z,95898.48
2019-01-15T17:04:18.999Z,95880.30
2019-01-15T17:07:05.725Z,95889.64
2019-01-15T17:09:39.489Z,95889.98
2019-01-15T17:12:10.679Z,95896.86
2019-01-15T17:14:41.750Z,95892.20
2019-01-15T17:17:13.442Z,95882.36
2019-01-15T17:19:50.434Z,95888.16
2019-01-15T17:22:37.143Z,95891.20
2019-01-15T17:25:06.880Z,95890.18
2019-01-15T17:27:45.975Z,95883.41
2019-01-15T17:30:17.802Z,95877.80
2019-01-15T17:33:04.937Z,95872.73
2019-01-15T17:35:38.703Z,95873.52
2019-01-15T17:38:09.801Z,95872.72
2019-01-15T17:40:42.354Z,95867.92
2019-01-15T17:43:16.142Z,95860.42
2019-01-15T17:45:47.262Z,95869.67
2019-01-15T17:48:27.273Z,95868.56
2019-01-15T17:51:29.734Z,95858.11
2019-01-15T17:54:03.683Z,95853.93
2019-01-15T17:56:34.702Z,95861.97
2019-01-15T17:59:11.415Z,95870.48
2019-01-15T18:01:54.372Z,95871.09
2019-01-15T18:04:41.437Z,95881.23
2019-01-15T18:07:18.264Z,95887.52
2019-01-15T18:09:51.757Z,95876.27
2019-01-15T18:12:37.642Z,95882.24
2019-01-15T18:15:25.356Z,95886.13
2019-01-15T18:17:59.127Z,95891.94
2019-01-15T18:20:30.185Z,95880.86
2019-01-15T18:23:20.037Z,95884.61
2019-01-15T18:25:51.117Z,95889.71
2019-01-15T18:28:28.042Z,95897.84
2019-01-15T18:31:14.727Z,95892.63
2019-01-15T18:33:45.865Z,95886.23
2019-01-15T18:36:19.835Z,95898.72
2019-01-15T18:39:07.035Z,95904.31
2019-01-15T18:41:46.902Z,95915.17
2019-01-15T18:44:17.961Z,95901.05
2019-01-15T18:46:55.931Z,95916.70
2019-01-15T18:49:28.104Z,95906.65
2019-01-15T18:51:59.230Z,95908.08
2019-01-15T18:54:44.958Z,95903.52
2019-01-15T18:57:18.903Z,95903.42
2019-01-15T18:59:50.402Z,95895.00
2019-01-15T19:02:30.364Z,95887.89
2019-01-15T19:05:04.157Z,95897.30
2019-01-15T19:07:44.907Z,95899.55
2019-01-15T19:10:18.437Z,95894.15
2019-01-15T19:12:51.999Z,95892.55
2019-01-15T19:15:25.786Z,95890.53
2019-01-15T19:18:12.519Z,95881.05
2019-01-15T19:20:56.596Z,95884.30
2019-01-15T19:23:43.334Z,95878.72
2019-01-15T19:26:14.441Z,95876.46
2019-01-15T19:29:01.053Z,95869.34
2019-01-15T19:31:32.100Z,95862.52
2019-01-15T19:34:19.062Z,95859.11
2019-01-15T19:36:50.128Z,95865.06
2019-01-15T19:39:21.182Z,95869.05
2019-01-15T19:41:55.034Z,95855.52
2019-01-15T19:44:44.098Z,95854.41
2019-01-15T19:47:25.357Z,95845.43
2019-01-15T19:50:12.041Z,95837.13
2019-01-15T19:52:43.109Z,95844.05
2019-01-15T19:55:17.074Z,95846.84
2019-01-15T19:57:56.540Z,95852.45
2019-01-15T20:00:30.319Z,95856.72
2019-01-15T20:03:02.171Z,95857.77
2019-01-15T20:05:51.391Z,95865.14
2019-01-15T20:08:24.999Z,95860.50
2019-01-15T20:11:10.935Z,95875.00
2019-01-15T20:13:47.471Z,95874.37
2019-01-15T20:16:34.231Z,95883.69
2019-01-15T20:19:16.840Z,95880.45
2019-01-15T20:21:56.352Z,95880.45
2019-01-15T20:24:27.440Z,95878.23
2019-01-15T20:27:07.145Z,95875.17
2019-01-15T20:29:40.955Z,95891.16
2019-01-15T20:32:27.916Z,95881.80
2019-01-15T20:35:14.925Z,95882.80
2019-01-15T20:38:01.834Z,95885.03
2019-01-15T20:40:32.932Z,95879.27
2019-01-15T20:43:12.668Z,95887.77
2019-01-15T20:46:03.540Z,95889.52
2019-01-15T20:48:34.626Z,95888.70
2019-01-15T20:51:21.710Z,95885.84
2019-01-15T20:54:02.479Z,95891.43
2019-01-15T20:56:31.767Z,95886.86
2019-01-15T20:59:14.646Z,95890.27
2019-01-15T21:01:45.710Z,95892.58
2019-01-15T21:04:16.846Z,95891.59
2019-01-15T21:06:56.561Z,95893.70
2019-01-15T21:09:36.122Z,95894.23
2019-01-15T21:12:19.098Z,95892.70
2019-01-15T21:14:55.636Z,95899.91
2019-01-15T21:17:32.835Z,95901.52
2019-01-15T21:19:59.555Z,95908.16
2019-01-15T21:22:30.647Z,95902.55
2019-01-15T21:25:14.716Z,95900.77
2019-01-15T21:27:43.917Z,95899.77
2019-01-15T21:30:16.566Z,95902.23
2019-01-15T21:32:53.675Z,95903.11
2019-01-15T21:35:24.770Z,95902.41
2019-01-15T21:37:58.556Z,95923.92
2019-01-15T21:40:29.625Z,95912.55
2019-01-15T21:43:00.704Z,95910.17
2019-01-15T21:45:41.726Z,95912.90
2019-01-15T21:48:15.488Z,95911.67
2019-01-15T21:50:49.301Z,95906.02
2019-01-15T21:53:29.471Z,95916.23
2019-01-15T21:56:09.523Z,95904.75
2019-01-15T21:58:43.310Z,95912.96
2019-01-15T22:01:30.229Z,95912.14
2019-01-15T22:04:17.229Z,95906.57
2019-01-15T22:07:00.159Z,95907.45
2019-01-15T22:09:33.705Z,95902.27
2019-01-15T22:12:10.640Z,95902.27
2019-01-15T22:14:41.740Z,95894.67
2019-01-15T22:17:18.482Z,95892.33
2019-01-15T22:19:58.397Z,95886.61
2019-01-15T22:22:32.003Z,95885.91
2019-01-15T22:25:18.686Z,95882.89
2019-01-15T22:27:49.763Z,95883.47
2019-01-15T22:30:20.864Z,95888.72
2019-01-15T22:32:54.634Z,95884.97
2019-01-15T22:35:40.524Z,95875.58
2019-01-15T22:38:17.413Z,95869.89
2019-01-15T22:40:51.196Z,95867.02
2019-01-15T22:43:30.972Z,95865.23
2019-01-15T22:46:02.051Z,95863.77
2019-01-15T22:48:44.614Z,95858.82
2019-01-15T22:51:24.340Z,95859.11
2019-01-15T22:54:01.097Z,95855.48
2019-01-15T22:56:34.855Z,95849.35
2019-01-15T22:59:14.424Z,95845.16
2019-01-15T23:01:54.127Z,95848.20
2019-01-15T23:04:41.433Z,95850.84
2019-01-15T23:07:12.507Z,95853.36
2019-01-15T23:09:52.274Z,95850.59
2019-01-15T23:12:38.474Z,95854.17
2019-01-15T23:15:25.884Z,95851.02
2019-01-15T23:18:11.591Z,95849.66
2019-01-15T23:20:42.683Z,95851.62
2019-01-15T23:23:29.845Z,95845.28
2019-01-15T23:26:00.918Z,95842.16
2019-01-15T23:28:34.931Z,95847.59
2019-01-15T23:31:21.876Z,95848.99
2019-01-15T23:34:08.887Z,95847.17
2019-01-15T23:36:42.371Z,95853.36
2019-01-15T23:39:19.446Z,95844.63
2019-01-15T23:41:53.422Z,95847.76
2019-01-15T23:44:24.512Z,95842.45
2019-01-15T23:47:11.498Z,95840.34
2019-01-15T23:49:48.050Z,95836.30
2019-01-15T23:52:21.928Z,95839.20
2019-01-15T23:54:58.787Z,95837.14
2019-01-15T23:57:32.749Z,95841.88
